Time;durP1;ratioP1;P1;durP2;ratioP2;P2;SDS_P1;SDS_P2;PMS_P1;PMS_P2;Temp;Humidity;BMP_temperature;BMP_pressure;BME280_temperature;BME280_humidity;BME280_pressure;Samples;Min_cycle;Max_cycle;Signal;HPM_P1;HPM_P2
2021/04/24 00:01:30;;;;;;;20.43;10.77;;;2.50;99.90;;;;;;5146974;28;20680;-68
2021/04/24 00:04:02;;;;;;;26.43;12.80;;;2.50;99.90;;;;;;5145945;28;20239;-68
2021/04/24 00:06:33;;;;;;;34.37;14.77;;;2.40;99.90;;;;;;5146746;28;20288;-64
2021/04/24 00:09:06;;;;;;;27.37;13.10;;;2.40;99.90;;;;;;5146494;28;20207;-69
2021/04/24 00:11:38;;;;;;;26.27;11.67;;;2.40;99.90;;;;;;5146679;28;20209;-68
2021/04/24 00:14:10;;;;;;;27.37;10.97;;;2.30;99.90;;;;;;5146654;28;20219;-72
2021/04/24 00:16:41;;;;;;;20.60;8.97;;;2.30;99.90;;;;;;5145341;28;20207;-70
2021/04/24 00:19:13;;;;;;;15.57;7.60;;;2.30;99.90;;;;;;5146436;28;20248;-66
2021/04/24 00:21:45;;;;;;;17.80;7.40;;;2.20;99.90;;;;;;5146402;28;20211;-70
2021/04/24 00:24:16;;;;;;;14.93;6.47;;;2.20;99.90;;;;;;5146364;28;20238;-69
2021/04/24 00:26:47;;;;;;;15.03;5.90;;;2.10;99.90;;;;;;5146225;28;20689;-70
2021/04/24 00:29:19;;;;;;;12.23;4.67;;;2.10;99.90;;;;;;5145012;28;20208;-69
2021/04/24 00:31:50;;;;;;;10.73;4.23;;;2.00;99.90;;;;;;5160429;28;20212;-69
2021/04/24 00:34:22;;;;;;;13.67;5.27;;;2.00;99.90;;;;;;5146111;28;20212;-70
2021/04/24 00:36:53;;;;;;;13.27;4.63;;;2.00;99.90;;;;;;5146169;28;20295;-71
2021/04/24 00:39:25;;;;;;;12.17;4.07;;;1.90;99.90;;;;;;5146441;28;20223;-70
2021/04/24 00:41:57;;;;;;;10.83;4.47;;;1.90;99.90;;;;;;5146517;28;20517;-69
2021/04/24 00:44:28;;;;;;;10.23;4.43;;;1.90;99.90;;;;;;5146175;28;20581;-69
2021/04/24 00:46:59;;;;;;;12.47;4.17;;;1.80;99.90;;;;;;5146341;28;20235;-68
2021/04/24 00:49:31;;;;;;;11.27;4.20;;;1.80;99.90;;;;;;5146094;28;20212;-70
2021/04/24 00:52:02;;;;;;;11.80;4.23;;;1.80;99.90;;;;;;5146599;28;20211;-69
2021/04/24 00:54:34;;;;;;;13.17;4.40;;;1.70;99.90;;;;;;5146292;28;20199;-70
2021/04/24 00:57:07;;;;;;;9.07;3.60;;;1.70;99.90;;;;;;5146468;28;20235;-68
2021/04/24 00:59:39;;;;;;;17.10;4.67;;;1.60;99.90;;;;;;5161153;28;20208;-66
2021/04/24 01:02:11;;;;;;;9.57;4.33;;;1.60;99.90;;;;;;5146270;28;20216;-66
2021/04/24 01:04:43;;;;;;;9.80;3.77;;;1.60;99.90;;;;;;5146222;28;20619;-66
2021/04/24 01:07:14;;;;;;;8.40;3.50;;;1.60;99.90;;;;;;5146156;28;20200;-69
2021/04/24 01:09:45;;;;;;;11.40;4.67;;;1.60;99.90;;;;;;5146222;28;20259;-66
2021/04/24 01:12:18;;;;;;;9.97;3.57;;;1.60;99.90;;;;;;5146223;28;20226;-70
2021/04/24 01:14:49;;;;;;;8.97;3.67;;;1.60;99.90;;;;;;5145702;28;20215;-67
2021/04/24 01:17:21;;;;;;;13.13;4.07;;;1.60;99.90;;;;;;5160845;28;20228;-69
2021/04/24 01:19:53;;;;;;;6.87;3.70;;;1.60;99.90;;;;;;5146175;28;20204;-67
2021/04/24 01:22:25;;;;;;;10.80;3.73;;;1.60;99.90;;;;;;5146237;28;20211;-66
2021/04/24 01:24:56;;;;;;;9.77;3.50;;;1.60;99.90;;;;;;5146123;28;20232;-68
2021/04/24 01:27:28;;;;;;;9.87;3.60;;;1.60;99.90;;;;;;5145606;28;20247;-67
2021/04/24 01:29:59;;;;;;;9.03;4.33;;;1.60;99.90;;;;;;5145644;28;20685;-69
2021/04/24 01:32:31;;;;;;;12.67;4.10;;;1.50;99.90;;;;;;5144636;28;20681;-66
2021/04/24 01:35:09;;;;;;;6.60;3.50;;;1.50;99.90;;;;;;5145844;28;20208;-67
2021/04/24 01:37:41;;;;;;;10.17;3.57;;;1.50;99.90;;;;;;5145618;28;20568;-66
2021/04/24 01:40:14;;;;;;;10.43;4.00;;;1.50;99.90;;;;;;5144459;28;20208;-66
2021/04/24 01:42:46;;;;;;;15.50;4.65;;;1.50;99.90;;;;;;5146206;28;20221;-66
2021/04/24 01:45:19;;;;;;;7.77;3.83;;;1.50;99.90;;;;;;5148043;28;20247;-65
2021/04/24 01:47:52;;;;;;;10.87;4.17;;;1.40;99.90;;;;;;5149204;28;20725;-66
2021/04/24 01:50:36;;;;;;;12.03;4.67;;;1.40;99.90;;;;;;5161323;28;20204;-68
2021/04/24 01:53:11;;;;;;;10.87;4.30;;;1.40;99.90;;;;;;5170144;28;20203;-65
2021/04/24 01:55:42;;;;;;;11.37;3.60;;;1.40;99.90;;;;;;5189214;28;20209;-66
2021/04/24 01:58:19;;;;;;;11.30;4.00;;;1.30;99.90;;;;;;5185506;28;20558;-66
2021/04/24 02:00:55;;;;;;;12.23;3.87;;;1.30;99.90;;;;;;5200364;28;20587;-66
2021/04/24 02:03:27;;;;;;;11.40;3.83;;;1.30;99.90;;;;;;5189373;28;20253;-68
2021/04/24 02:05:59;;;;;;;12.43;4.53;;;1.30;99.90;;;;;;5189639;28;20202;-67
2021/04/24 02:08:40;;;;;;;13.70;4.63;;;1.30;99.90;;;;;;5189754;28;20207;-69
2021/04/24 02:11:12;;;;;;;10.80;4.73;;;1.20;99.90;;;;;;5189144;28;20301;-65
2021/04/24 02:13:44;;;;;;;12.27;4.57;;;1.20;99.90;;;;;;5189064;28;20213;-67
2021/04/24 02:16:16;;;;;;;11.23;4.07;;;1.20;99.90;;;;;;5189255;28;20226;-68
2021/04/24 02:18:48;;;;;;;7.77;3.87;;;1.20;99.90;;;;;;5204381;28;20207;-65
2021/04/24 02:21:19;;;;;;;10.93;4.00;;;1.20;99.90;;;;;;5189579;28;20401;-64
2021/04/24 02:23:51;;;;;;;10.93;4.80;;;1.10;99.90;;;;;;5188866;28;20609;-65
2021/04/24 02:26:23;;;;;;;15.30;4.23;;;1.10;99.90;;;;;;5188540;28;20239;-68
2021/04/24 02:28:54;;;;;;;12.67;4.00;;;1.10;99.90;;;;;;5188628;28;20207;-68
2021/04/24 02:31:26;;;;;;;10.30;3.80;;;1.10;99.90;;;;;;5188567;28;20211;-67
2021/04/24 02:33:58;;;;;;;13.07;3.87;;;1.10;99.90;;;;;;5188802;28;20261;-66
2021/04/24 02:36:29;;;;;;;9.37;3.40;;;1.10;99.90;;;;;;5188649;28;20210;-67
2021/04/24 02:39:00;;;;;;;10.57;3.77;;;1.00;99.90;;;;;;5188867;28;20210;-68
2021/04/24 02:41:32;;;;;;;8.03;3.70;;;1.00;99.90;;;;;;5188775;28;20221;-68
2021/04/24 02:44:04;;;;;;;10.10;4.07;;;1.00;99.90;;;;;;5188269;28;20227;-70
2021/04/24 02:46:37;;;;;;;9.83;3.57;;;1.00;99.90;;;;;;5188709;28;20563;-70
2021/04/24 02:49:08;;;;;;;9.63;4.10;;;1.00;99.90;;;;;;5188394;28;20206;-65
2021/04/24 02:51:39;;;;;;;9.17;3.80;;;0.90;99.90;;;;;;5188925;28;20206;-72
2021/04/24 02:54:11;;;;;;;8.00;3.30;;;0.90;99.90;;;;;;5203295;28;20222;-69
2021/04/24 02:56:42;;;;;;;6.97;3.30;;;0.90;99.90;;;;;;5187764;28;20234;-69
2021/04/24 02:59:15;;;;;;;7.17;3.40;;;0.90;99.90;;;;;;5188024;28;20657;-68
2021/04/24 03:01:47;;;;;;;12.53;3.23;;;0.90;99.90;;;;;;5188068;28;20658;-68
2021/04/24 03:04:19;;;;;;;10.53;3.83;;;0.90;99.90;;;;;;5187973;28;20230;-68
2021/04/24 03:06:51;;;;;;;6.77;3.20;;;0.90;99.90;;;;;;5189051;28;20203;-72
2021/04/24 03:09:22;;;;;;;10.70;3.90;;;0.90;99.90;;;;;;5188228;28;20229;-69
2021/04/24 03:11:53;;;;;;;10.70;3.50;;;0.80;99.90;;;;;;5188174;28;20210;-68
2021/04/24 03:14:25;;;;;;;14.50;3.80;;;0.80;99.90;;;;;;5187920;28;20213;-69
2021/04/24 03:16:56;;;;;;;12.20;3.67;;;0.80;99.90;;;;;;5187841;28;20251;-67
2021/04/24 03:19:28;;;;;;;13.63;3.97;;;0.80;99.90;;;;;;5187897;28;20203;-69
2021/04/24 03:21:59;;;;;;;7.97;4.10;;;0.70;99.90;;;;;;5188011;28;20550;-69
2021/04/24 03:24:30;;;;;;;7.47;3.47;;;0.70;99.90;;;;;;5187854;28;20222;-69
2021/04/24 03:27:02;;;;;;;11.27;3.70;;;0.70;99.90;;;;;;5187631;28;20242;-70
2021/04/24 03:29:33;;;;;;;9.97;3.87;;;0.70;99.90;;;;;;5187873;28;20211;-69
2021/04/24 03:32:05;;;;;;;9.50;3.50;;;0.70;99.90;;;;;;5187415;28;20214;-69
2021/04/24 03:34:37;;;;;;;9.73;4.30;;;0.80;99.90;;;;;;5188076;28;20206;-67
2021/04/24 03:37:09;;;;;;;8.30;3.80;;;0.80;99.90;;;;;;5187970;28;20211;-69
2021/04/24 03:39:40;;;;;;;9.87;4.10;;;0.80;99.90;;;;;;5187647;28;20567;-69
2021/04/24 03:42:13;;;;;;;12.50;4.03;;;0.80;99.90;;;;;;5202663;28;20217;-71
2021/04/24 03:44:45;;;;;;;9.47;4.07;;;0.80;99.90;;;;;;5187082;28;20237;-69
2021/04/24 03:47:18;;;;;;;9.17;4.40;;;0.80;99.90;;;;;;5186186;28;20257;-70
2021/04/24 03:49:50;;;;;;;10.53;4.40;;;0.90;99.90;;;;;;5187071;28;20210;-69
2021/04/24 03:52:21;;;;;;;10.07;3.93;;;0.90;99.90;;;;;;5187271;28;20207;-72
2021/04/24 03:54:53;;;;;;;8.30;4.13;;;0.90;99.90;;;;;;5187165;28;20203;-72
2021/04/24 03:57:24;;;;;;;12.93;4.23;;;0.90;99.90;;;;;;5187761;28;20207;-68
2021/04/24 03:59:56;;;;;;;9.23;4.27;;;0.90;99.90;;;;;;5202059;28;20253;-70
2021/04/24 04:02:27;;;;;;;8.60;3.60;;;1.00;99.90;;;;;;5186997;28;20202;-70
2021/04/24 04:04:58;;;;;;;7.20;3.50;;;1.00;99.90;;;;;;5186973;28;20241;-71
2021/04/24 04:07:30;;;;;;;10.77;4.27;;;1.10;99.90;;;;;;5187394;28;20199;-70
2021/04/24 04:10:01;;;;;;;13.37;4.70;;;1.10;99.90;;;;;;5186753;28;20294;-69
2021/04/24 04:12:33;;;;;;;8.70;3.80;;;1.20;99.90;;;;;;5186851;28;20217;-67
2021/04/24 04:15:06;;;;;;;9.50;3.83;;;1.30;99.90;;;;;;5186510;28;20572;-68
2021/04/24 04:17:38;;;;;;;10.67;4.03;;;1.30;99.90;;;;;;5186994;28;20207;-69
2021/04/24 04:20:11;;;;;;;15.30;4.40;;;1.30;99.90;;;;;;5201817;28;20203;-70
2021/04/24 04:22:45;;;;;;;7.20;3.17;;;1.30;99.90;;;;;;5186581;28;20325;-70
2021/04/24 04:25:17;;;;;;;7.40;3.43;;;1.40;99.90;;;;;;5202193;28;20606;-68
2021/04/24 04:27:48;;;;;;;12.43;3.57;;;1.40;99.90;;;;;;5186571;28;20325;-69
2021/04/24 04:30:21;;;;;;;9.97;3.17;;;1.50;99.90;;;;;;5185494;28;20699;-68
2021/04/24 04:32:53;;;;;;;9.37;3.00;;;1.50;99.90;;;;;;5186695;28;20207;-69
2021/04/24 04:35:25;;;;;;;8.50;3.10;;;1.60;99.90;;;;;;5186791;28;20543;-68
2021/04/24 04:37:57;;;;;;;3.53;2.57;;;1.60;99.90;;;;;;5186679;28;20213;-69
2021/04/24 04:40:28;;;;;;;9.60;3.37;;;1.70;99.90;;;;;;5201833;28;20206;-70
2021/04/24 04:43:00;;;;;;;7.23;2.90;;;1.80;99.90;;;;;;5187149;28;20203;-68
2021/04/24 04:45:32;;;;;;;7.10;3.07;;;1.90;99.90;;;;;;5186456;28;20222;-71
2021/04/24 04:48:05;;;;;;;8.33;3.00;;;2.00;99.90;;;;;;5186604;28;20572;-67
2021/04/24 04:50:38;;;;;;;7.97;2.60;;;2.10;99.90;;;;;;5186323;28;20269;-71
2021/04/24 04:53:09;;;;;;;7.53;2.90;;;2.10;99.90;;;;;;5186459;28;20207;-70
2021/04/24 04:55:41;;;;;;;6.47;2.40;;;2.30;99.90;;;;;;5186373;28;20207;-71
2021/04/24 04:58:12;;;;;;;6.43;2.47;;;2.50;99.90;;;;;;5186541;28;20559;-70
2021/04/24 05:00:44;;;;;;;5.20;2.20;;;2.60;99.90;;;;;;5186122;28;20207;-70
2021/04/24 05:03:15;;;;;;;7.63;2.57;;;2.70;99.90;;;;;;5186108;28;20207;-71
2021/04/24 05:05:48;;;;;;;8.43;2.50;;;2.80;99.90;;;;;;5186421;28;20317;-69
2021/04/24 05:08:19;;;;;;;5.63;2.40;;;2.90;99.90;;;;;;5186498;28;20231;-69
2021/04/24 05:10:52;;;;;;;6.77;2.43;;;3.00;99.90;;;;;;5186693;28;20570;-67
2021/04/24 05:13:23;;;;;;;7.07;2.60;;;3.10;99.90;;;;;;5186923;28;20665;-65
2021/04/24 05:15:55;;;;;;;5.60;2.13;;;3.20;99.90;;;;;;5186398;28;20211;-69
2021/04/24 05:18:27;;;;;;;3.60;1.90;;;3.20;99.90;;;;;;5187426;28;20222;-66
2021/04/24 05:20:59;;;;;;;4.83;2.20;;;3.30;99.90;;;;;;5190222;28;20211;-67
2021/04/24 05:23:31;;;;;;;5.13;1.73;;;3.40;99.90;;;;;;5190268;28;20230;-63
2021/04/24 05:26:02;;;;;;;6.87;1.80;;;3.60;99.90;;;;;;5190122;28;20586;-68
2021/04/24 05:28:34;;;;;;;5.37;2.10;;;3.80;99.90;;;;;;5189986;28;20217;-67
2021/04/24 05:31:07;;;;;;;4.03;2.00;;;4.00;99.90;;;;;;5188731;28;20207;-64
2021/04/24 05:33:38;;;;;;;6.20;2.13;;;4.20;99.90;;;;;;5190492;28;20203;-69
2021/04/24 05:36:12;;;;;;;5.23;2.30;;;4.30;99.90;;;;;;5189867;28;20214;-64
2021/04/24 05:38:44;;;;;;;5.53;2.00;;;4.40;99.90;;;;;;5189675;28;20297;-67
2021/04/24 05:41:20;;;;;;;6.03;1.90;;;4.50;99.90;;;;;;5189799;28;20199;-66
2021/04/24 05:43:53;;;;;;;9.40;2.30;;;4.50;99.90;;;;;;5189526;28;20249;-63
2021/04/24 05:46:26;;;;;;;6.47;1.80;;;4.60;99.90;;;;;;5189364;28;20207;-63
2021/04/24 05:48:58;;;;;;;4.57;1.97;;;4.60;99.90;;;;;;5189441;28;20203;-65
2021/04/24 05:51:30;;;;;;;5.10;1.60;;;4.70;99.90;;;;;;5188662;28;20214;-64
2021/04/24 05:54:01;;;;;;;5.00;1.70;;;4.90;99.90;;;;;;5190485;28;20597;-65
2021/04/24 05:56:33;;;;;;;2.93;1.60;;;5.10;99.90;;;;;;5190650;28;20218;-64
2021/04/24 05:59:04;;;;;;;4.40;2.13;;;5.20;99.90;;;;;;5190589;28;20630;-66
2021/04/24 06:01:36;;;;;;;5.90;2.20;;;5.30;99.90;;;;;;5190937;28;20241;-66
2021/04/24 06:04:07;;;;;;;5.43;1.90;;;5.40;99.90;;;;;;5190450;28;20254;-64
2021/04/24 06:06:39;;;;;;;6.70;2.30;;;5.50;99.90;;;;;;5189910;28;20614;-65
2021/04/24 06:09:11;;;;;;;8.47;2.07;;;5.60;99.90;;;;;;5190565;28;20203;-69
2021/04/24 06:11:42;;;;;;;5.93;1.70;;;5.70;99.90;;;;;;5189722;28;20591;-68
2021/04/24 06:14:13;;;;;;;3.00;1.57;;;5.90;99.90;;;;;;5189077;28;20211;-68
2021/04/24 06:16:45;;;;;;;4.27;1.40;;;6.10;99.90;;;;;;5188681;28;20214;-68
2021/04/24 06:19:16;;;;;;;5.63;1.40;;;6.70;99.90;;;;;;5189104;28;20219;-68
2021/04/24 06:21:47;;;;;;;4.40;1.30;;;8.30;99.90;;;;;;5187835;28;20571;-70
2021/04/24 06:24:19;;;;;;;6.53;1.40;;;9.20;99.90;;;;;;5188936;28;20230;-70
2021/04/24 06:26:50;;;;;;;2.50;1.13;;;9.60;99.90;;;;;;5188791;28;20248;-67
2021/04/24 06:29:22;;;;;;;3.03;1.30;;;9.70;99.90;;;;;;5188066;28;20214;-66
2021/04/24 06:31:53;;;;;;;6.03;1.70;;;9.60;99.90;;;;;;5188260;28;20214;-70
2021/04/24 06:34:25;;;;;;;4.27;1.30;;;9.50;99.90;;;;;;5188722;28;20276;-68
2021/04/24 06:36:56;;;;;;;4.10;1.27;;;9.80;99.90;;;;;;5188506;28;20258;-71
2021/04/24 06:39:28;;;;;;;5.17;1.50;;;10.70;99.90;;;;;;5188598;28;20217;-67
2021/04/24 06:42:00;;;;;;;3.07;1.10;;;12.60;99.90;;;;;;5188602;28;20565;-70
2021/04/24 06:44:31;;;;;;;4.03;1.20;;;13.90;99.90;;;;;;5187930;28;20236;-66
2021/04/24 06:47:03;;;;;;;4.60;1.50;;;13.60;99.90;;;;;;5188408;28;20287;-67
2021/04/24 06:49:34;;;;;;;5.67;1.50;;;13.40;99.90;;;;;;5203903;28;20214;-65
2021/04/24 06:52:06;;;;;;;6.40;1.37;;;13.80;99.90;;;;;;5165302;28;20216;-72
2021/04/24 06:54:37;;;;;;;3.33;1.20;;;13.60;99.90;;;;;;5167912;28;20206;-69
2021/04/24 06:57:10;;;;;;;5.33;1.53;;;13.20;99.90;;;;;;5182914;28;20211;-67
2021/04/24 06:59:43;;;;;;;5.83;1.30;;;13.00;99.90;;;;;;5182702;28;20290;-68
2021/04/24 07:02:17;;;;;;;5.03;1.30;;;12.60;99.90;;;;;;5167432;28;20658;-67
2021/04/24 07:04:49;;;;;;;7.00;2.40;;;11.90;99.90;;;;;;5168035;28;20230;-70
2021/04/24 07:07:21;;;;;;;4.43;1.87;;;11.50;99.90;;;;;;5168059;28;20682;-70
2021/04/24 07:09:52;;;;;;;6.80;1.70;;;11.30;99.90;;;;;;5167674;28;20559;-69
2021/04/24 07:12:23;;;;;;;1.77;1.20;;;11.10;99.90;;;;;;5167693;28;20204;-66
2021/04/24 07:14:55;;;;;;;4.33;1.27;;;10.80;99.90;;;;;;5167636;28;20209;-66
2021/04/24 07:17:26;;;;;;;3.30;1.30;;;11.40;99.90;;;;;;5167614;28;20207;-69
2021/04/24 07:19:58;;;;;;;2.43;1.00;;;12.40;99.90;;;;;;5166247;28;20265;-71
2021/04/24 07:22:29;;;;;;;4.67;1.13;;;13.80;99.90;;;;;;5167541;28;20215;-66
2021/04/24 07:25:01;;;;;;;4.05;1.35;;;15.20;98.60;;;;;;5166024;28;20323;-69
2021/04/24 07:27:33;;;;;;;2.28;1.08;;;16.70;95.60;;;;;;5166974;28;20239;-67
2021/04/24 07:30:07;;;;;;;3.72;1.40;;;17.50;91.60;;;;;;5165821;28;20203;-71
2021/04/24 07:32:39;;;;;;;4.70;1.25;;;17.70;86.30;;;;;;5163091;28;20230;-68
2021/04/24 07:35:11;;;;;;;2.72;1.10;;;17.00;82.80;;;;;;5166556;28;20196;-68
2021/04/24 07:37:44;;;;;;;3.28;1.08;;;16.00;84.40;;;;;;5162440;28;20199;-72
2021/04/24 07:40:15;;;;;;;3.47;1.20;;;15.70;86.70;;;;;;5166443;28;20196;-73
2021/04/24 07:42:47;;;;;;;2.58;0.82;;;15.40;82.30;;;;;;5166264;28;20191;-75
2021/04/24 07:45:18;;;;;;;2.88;0.77;;;14.50;82.60;;;;;;5166061;28;20235;-68
2021/04/24 07:47:50;;;;;;;3.70;1.10;;;14.00;84.50;;;;;;5164127;28;20238;-74
2021/04/24 07:50:21;;;;;;;2.60;1.00;;;13.30;84.30;;;;;;5166086;28;20777;-71
2021/04/24 07:52:53;;;;;;;2.20;0.97;;;12.80;86.60;;;;;;5150009;28;20535;-71
2021/04/24 07:55:25;;;;;;;1.57;0.77;;;12.30;85.60;;;;;;5158881;28;20202;-70
2021/04/24 07:57:56;;;;;;;2.17;0.90;;;11.60;86.70;;;;;;5153690;28;20208;-69
2021/04/24 08:00:30;;;;;;;2.47;1.20;;;11.00;89.60;;;;;;5146095;28;20208;-66
2021/04/24 08:03:03;;;;;;;2.63;1.17;;;10.50;88.40;;;;;;5146253;28;20196;-69
2021/04/24 08:05:35;;;;;;;4.40;1.30;;;9.70;87.00;;;;;;5146301;28;20236;-66
2021/04/24 08:08:06;;;;;;;4.63;0.80;;;9.10;89.80;;;;;;5146383;28;20208;-69
2021/04/24 08:10:38;;;;;;;3.33;1.23;;;9.20;91.40;;;;;;5145112;28;20200;-68
2021/04/24 08:13:09;;;;;;;5.77;2.70;;;9.40;91.30;;;;;;5145966;28;20208;-70
2021/04/24 08:15:41;;;;;;;2.37;1.37;;;9.70;91.70;;;;;;5145929;28;20208;-69
2021/04/24 08:18:12;;;;;;;3.37;1.53;;;9.60;87.80;;;;;;5145796;28;20223;-67
2021/04/24 08:20:44;;;;;;;4.83;2.07;;;9.30;88.40;;;;;;5145904;28;20196;-68
2021/04/24 08:23:16;;;;;;;2.10;0.87;;;9.20;90.30;;;;;;5146303;28;20583;-69
2021/04/24 08:25:47;;;;;;;3.60;0.80;;;9.20;87.40;;;;;;5145914;28;20248;-68
2021/04/24 08:28:18;;;;;;;4.07;1.23;;;9.10;88.60;;;;;;5146107;28;20701;-70
2021/04/24 08:30:50;;;;;;;5.03;1.40;;;9.30;90.30;;;;;;5145674;28;20215;-72
2021/04/24 08:33:21;;;;;;;2.17;0.70;;;9.40;91.30;;;;;;5146063;28;20223;-74
2021/04/24 08:35:53;;;;;;;3.70;0.80;;;9.60;88.30;;;;;;5145948;28;20192;-69
2021/04/24 08:38:25;;;;;;;1.27;0.87;;;9.30;89.00;;;;;;5146298;28;20196;-76
2021/04/24 08:40:56;;;;;;;2.37;0.80;;;9.30;89.90;;;;;;5146409;28;20204;-69
2021/04/24 08:43:28;;;;;;;2.07;1.00;;;9.30;90.20;;;;;;5146085;28;20554;-69
2021/04/24 08:46:02;;;;;;;3.73;1.50;;;9.20;91.40;;;;;;5145636;28;20208;-70
2021/04/24 08:48:35;;;;;;;4.17;1.87;;;9.30;91.10;;;;;;5146121;28;20194;-70
2021/04/24 08:51:07;;;;;;;4.67;1.90;;;9.50;91.60;;;;;;5145843;28;20188;-67
2021/04/24 08:53:39;;;;;;;2.87;1.70;;;9.30;91.10;;;;;;5147244;28;20217;-65
2021/04/24 08:56:11;;;;;;;3.63;1.77;;;9.40;90.80;;;;;;5169795;28;20195;-66
2021/04/24 08:58:42;;;;;;;2.50;1.20;;;9.60;88.30;;;;;;5169557;28;20222;-67
2021/04/24 09:01:14;;;;;;;2.53;0.70;;;9.80;86.50;;;;;;5169531;28;20218;-66
2021/04/24 09:03:46;;;;;;;2.47;1.00;;;9.40;85.50;;;;;;5169137;28;20425;-68
2021/04/24 09:06:21;;;;;;;3.30;1.23;;;9.00;87.10;;;;;;5170308;28;20211;-65
2021/04/24 09:08:54;;;;;;;1.40;0.77;;;8.70;86.90;;;;;;5171138;28;20285;-67
2021/04/24 09:11:26;;;;;;;4.70;1.53;;;8.50;88.10;;;;;;5171349;28;20215;-65
2021/04/24 09:14:06;;;;;;;2.23;1.00;;;8.50;87.80;;;;;;5173029;28;20203;-70
2021/04/24 09:16:44;;;;;;;3.63;1.03;;;8.50;86.10;;;;;;5167065;28;20290;-67
2021/04/24 09:19:32;;;;;;;1.97;0.70;;;8.40;85.70;;;;;;5170668;28;20199;-64
2021/04/24 09:22:19;;;;;;;2.27;0.87;;;8.60;86.50;;;;;;5170960;28;20286;-64
2021/04/24 09:24:56;;;;;;;1.87;0.70;;;8.90;85.00;;;;;;5185438;28;20238;-65
2021/04/24 09:27:47;;;;;;;0.67;0.37;;;9.00;83.20;;;;;;5170209;28;20227;-64
2021/04/24 09:30:24;;;;;;;3.73;0.77;;;9.10;81.60;;;;;;5185495;28;20195;-64
2021/04/24 09:33:02;;;;;;;3.87;0.77;;;9.40;81.40;;;;;;5170717;28;20214;-64
2021/04/24 09:35:53;;;;;;;2.60;0.60;;;9.60;78.00;;;;;;5171266;28;20195;-66
2021/04/24 09:38:30;;;;;;;1.53;0.40;;;10.00;78.30;;;;;;5168295;28;20211;-66
2021/04/24 09:41:12;;;;;;;2.10;0.50;;;10.30;75.10;;;;;;5169562;28;20199;-65
2021/04/24 09:43:53;;;;;;;0.80;0.40;;;9.70;73.50;;;;;;5169158;28;20287;-66
2021/04/24 09:46:30;;;;;;;3.10;1.03;;;9.50;73.90;;;;;;5169593;28;20214;-68
2021/04/24 09:49:30;;;;;;;1.50;1.10;;;9.30;73.70;;;;;;5174762;28;20210;-76
2021/04/24 09:52:04;;;;;;;1.20;0.80;;;9.20;75.80;;;;;;5170968;28;20204;-74
2021/04/24 09:54:43;;;;;;;4.27;1.07;;;9.30;74.80;;;;;;5167991;28;20199;-69
2021/04/24 09:57:22;;;;;;;1.60;0.70;;;9.50;77.10;;;;;;5180273;28;20201;-76
2021/04/24 10:00:05;;;;;;;1.30;0.50;;;9.80;76.50;;;;;;5170937;28;20202;-68
2021/04/24 10:02:39;;;;;;;1.60;0.50;;;10.00;74.30;;;;;;5167720;28;20210;-66
2021/04/24 10:05:16;;;;;;;0.70;0.50;;;9.70;73.60;;;;;;5168039;28;20429;-67
2021/04/24 10:07:55;;;;;;;1.37;0.60;;;9.60;75.80;;;;;;5161691;28;20662;-69
2021/04/24 10:10:29;;;;;;;1.30;0.50;;;9.80;76.50;;;;;;5158189;28;20549;-68
2021/04/24 10:13:03;;;;;;;1.67;0.60;;;10.20;77.30;;;;;;5163358;28;20215;-70
2021/04/24 10:15:37;;;;;;;1.90;0.60;;;10.40;76.30;;;;;;5161579;28;20215;-76
2021/04/24 10:18:12;;;;;;;0.67;0.30;;;10.10;74.50;;;;;;5164900;28;20714;-66
2021/04/24 10:20:46;;;;;;;1.07;0.53;;;9.40;75.20;;;;;;5164503;28;20654;-67
2021/04/24 10:23:18;;;;;;;3.17;0.93;;;9.00;76.30;;;;;;5171650;28;20303;-70
2021/04/24 10:25:49;;;;;;;3.40;1.33;;;9.10;74.20;;;;;;5140824;28;20234;-65
2021/04/24 10:28:21;;;;;;;4.83;1.17;;;9.20;74.20;;;;;;5164809;28;20590;-72
2021/04/24 10:30:53;;;;;;;2.00;0.60;;;9.20;77.10;;;;;;5165404;28;20557;-69
2021/04/24 10:33:25;;;;;;;2.03;1.17;;;9.10;69.90;;;;;;5164559;28;20203;-63
2021/04/24 10:35:57;;;;;;;1.40;0.70;;;8.90;72.30;;;;;;5164404;28;20325;-76
2021/04/24 10:38:28;;;;;;;2.23;1.47;;;8.90;72.80;;;;;;5160285;28;20651;-73
2021/04/24 10:41:00;;;;;;;3.23;1.40;;;8.90;72.60;;;;;;5163841;28;20670;-76
2021/04/24 10:43:32;;;;;;;3.90;1.33;;;8.80;73.40;;;;;;5174571;28;20204;-70
2021/04/24 10:46:23;;;;;;;1.47;0.53;;;8.70;73.70;;;;;;5160403;28;20226;-68
2021/04/24 10:49:19;;;;;;;6.27;1.23;;;9.00;73.50;;;;;;5162688;28;20191;-72
2021/04/24 10:52:19;;;;;;;2.87;0.60;;;9.40;69.70;;;;;;5123262;28;20219;-68
2021/04/24 10:55:12;;;;;;;1.00;0.43;;;9.70;68.30;;;;;;5135350;28;20587;-71
2021/04/24 10:57:48;;;;;;;1.30;0.50;;;10.00;66.90;;;;;;5132794;28;20288;-67
2021/04/24 11:00:22;;;;;;;1.50;0.47;;;9.90;66.40;;;;;;5128494;28;20204;-67
2021/04/24 11:02:55;;;;;;;1.17;0.50;;;9.60;66.80;;;;;;5133717;28;20340;-66
2021/04/24 11:08:20;;;;;;;1.23;0.47;;;9.60;66.20;;;;;;5299673;23;20723;-56
2021/04/24 11:11:24;;;;;;;2.10;0.73;;;9.80;66.60;;;;;;5211223;28;20198;-53
2021/04/24 11:13:56;;;;;;;2.23;0.40;;;9.80;65.90;;;;;;5163251;28;20402;-61
2021/04/24 11:16:32;;;;;;;0.87;0.40;;;9.50;65.50;;;;;;5179811;28;20211;-62
2021/04/24 11:19:04;;;;;;;5.03;0.70;;;9.50;66.80;;;;;;5164669;28;20228;-58
2021/04/24 11:21:35;;;;;;;0.83;0.50;;;9.50;64.30;;;;;;5154658;28;20286;-71
2021/04/24 11:24:07;;;;;;;3.30;0.60;;;9.30;60.50;;;;;;5150913;28;20671;-68
2021/04/24 11:26:41;;;;;;;2.20;0.50;;;9.00;59.90;;;;;;5177455;28;20213;-71
2021/04/24 11:29:40;;;;;;;5.23;0.60;;;8.80;61.80;;;;;;5177635;28;20282;-70
2021/04/24 11:32:20;;;;;;;0.73;0.60;;;8.80;60.50;;;;;;5170742;28;20369;-71
2021/04/24 11:34:52;;;;;;;0.60;0.33;;;8.60;61.00;;;;;;5171073;28;20230;-69
2021/04/24 11:37:26;;;;;;;4.43;0.97;;;8.80;62.10;;;;;;5174450;28;20216;-75
2021/04/24 11:40:28;;;;;;;1.17;0.80;;;9.20;60.20;;;;;;5171935;28;20206;-69
2021/04/24 11:43:06;;;;;;;1.83;0.60;;;9.40;59.80;;;;;;5102006;29;20700;-70
2021/04/24 11:46:01;;;;;;;2.63;0.70;;;9.30;59.00;;;;;;5100231;29;20239;-70
2021/04/24 11:48:46;;;;;;;1.37;0.57;;;9.00;60.00;;;;;;5042095;29;20212;-69
2021/04/24 11:51:33;;;;;;;1.37;0.40;;;8.70;59.20;;;;;;5061379;29;20226;-70
2021/04/24 11:54:10;;;;;;;1.70;0.47;;;8.50;59.30;;;;;;5061503;29;20562;-69
2021/04/24 11:56:46;;;;;;;0.83;0.50;;;8.50;58.90;;;;;;5056806;29;20210;-76
2021/04/24 11:59:29;;;;;;;0.60;0.50;;;8.50;58.30;;;;;;5062315;29;20214;-73
2021/04/24 12:02:12;;;;;;;1.80;0.77;;;8.70;58.60;;;;;;5063390;29;20550;-74
2021/04/24 12:04:46;;;;;;;1.73;0.43;;;8.90;59.60;;;;;;5060104;29;20416;-79
2021/04/24 12:07:18;;;;;;;1.23;0.60;;;8.90;59.40;;;;;;5106124;29;20296;-79
2021/04/24 12:09:55;;;;;;;2.37;0.60;;;8.70;59.60;;;;;;5119539;29;20207;-75
2021/04/24 12:12:37;;;;;;;1.53;0.50;;;8.70;59.00;;;;;;5120052;28;20224;-78
2021/04/24 12:15:13;;;;;;;2.43;1.00;;;8.60;57.80;;;;;;5118348;29;20256;-73
2021/04/24 12:17:51;;;;;;;1.60;0.90;;;8.40;57.20;;;;;;5120667;29;20222;-72
2021/04/24 12:20:30;;;;;;;1.40;0.60;;;8.50;58.60;;;;;;5178252;28;20233;-76
2021/04/24 12:23:04;;;;;;;1.37;0.70;;;8.50;59.10;;;;;;5197527;28;20205;-80
2021/04/24 12:25:38;;;;;;;1.37;0.90;;;8.40;58.90;;;;;;5198326;28;20229;-73
2021/04/24 12:28:11;;;;;;;0.60;0.40;;;8.10;58.90;;;;;;5191479;28;20294;-77
2021/04/24 12:30:48;;;;;;;5.53;2.00;;;8.00;58.70;;;;;;5196334;28;20286;-72
2021/04/24 12:33:21;;;;;;;4.57;1.40;;;8.20;60.40;;;;;;5212407;28;20256;-69
2021/04/24 12:35:59;;;;;;;3.67;1.60;;;8.40;60.90;;;;;;5192530;28;20564;-70
2021/04/24 12:38:32;;;;;;;1.30;0.80;;;8.80;61.80;;;;;;5192357;28;20202;-76
2021/04/24 12:41:04;;;;;;;2.03;0.50;;;9.10;61.20;;;;;;5187187;28;20203;-70
2021/04/24 12:43:38;;;;;;;3.43;1.20;;;9.20;59.90;;;;;;5191619;28;20272;-75
2021/04/24 12:46:11;;;;;;;1.30;0.70;;;9.40;59.00;;;;;;5193473;28;20730;-70
2021/04/24 12:48:48;;;;;;;1.90;1.00;;;9.40;56.70;;;;;;5190816;28;20684;-69
2021/04/24 12:51:21;;;;;;;1.00;0.40;;;9.10;56.70;;;;;;5195226;28;20195;-71
2021/04/24 12:53:53;;;;;;;1.70;0.83;;;9.00;57.40;;;;;;5195185;28;20294;-72
2021/04/24 12:56:31;;;;;;;1.07;0.60;;;9.10;58.70;;;;;;5197050;28;20207;-70
2021/04/24 12:59:04;;;;;;;2.20;0.50;;;9.30;58.50;;;;;;5193886;28;20289;-72
2021/04/24 13:01:36;;;;;;;1.90;0.40;;;9.40;58.70;;;;;;5208420;28;20218;-70
2021/04/24 13:04:14;;;;;;;0.70;0.30;;;9.30;58.30;;;;;;5189762;28;20583;-72
2021/04/24 13:06:56;;;;;;;0.90;0.40;;;9.10;58.60;;;;;;5191275;28;20230;-72
2021/04/24 13:09:37;;;;;;;5.03;1.07;;;9.40;58.00;;;;;;5189831;28;20290;-68
2021/04/24 13:12:13;;;;;;;2.57;0.60;;;9.50;56.90;;;;;;5192248;28;20574;-69
2021/04/24 13:14:47;;;;;;;1.33;0.60;;;9.50;57.50;;;;;;5188030;28;20183;-71
2021/04/24 13:17:25;;;;;;;2.37;0.80;;;9.70;57.60;;;;;;5193114;28;20225;-71
2021/04/24 13:19:58;;;;;;;2.93;0.93;;;9.80;57.30;;;;;;5185953;28;20200;-70
2021/04/24 13:22:44;;;;;;;7.87;0.90;;;9.90;58.10;;;;;;5191966;28;20191;-72
2021/04/24 13:25:30;;;;;;;2.43;0.70;;;10.10;54.80;;;;;;5191643;28;20231;-73
2021/04/24 13:28:03;;;;;;;2.80;0.70;;;10.10;54.70;;;;;;5190550;28;20202;-68
2021/04/24 13:30:45;;;;;;;2.43;0.57;;;10.00;55.00;;;;;;5189295;28;20626;-73